Time;durP1;ratioP1;P1;durP2;ratioP2;P2;SDS_P1;SDS_P2;PMS_P1;PMS_P2;Temp;Humidity;BMP_temperature;BMP_pressure;BME280_temperature;BME280_humidity;BME280_pressure;Samples;Min_cycle;Max_cycle;Signal;HPM_P1;HPM_P2
2023/06/27 00:00:17;;;;;;;7.13;2.35;;;;;;;15.59;87.71;101885.44;4915412;29;20087;-92
2023/06/27 00:02:46;;;;;;;10.93;2.42;;;;;;;15.55;89.64;101881.63;4904421;29;20021;-93
2023/06/27 00:05:12;;;;;;;11.25;2.60;;;;;;;15.57;88.51;101886.78;4876401;29;20064;-94
2023/06/27 00:07:38;;;;;;;8.35;2.38;;;;;;;15.50;89.85;101878.94;4877421;29;20025;-93
2023/06/27 00:10:04;;;;;;;6.20;2.63;;;;;;;15.48;89.15;101878.38;4878608;29;20944;-94
2023/06/27 00:12:30;;;;;;;6.68;2.38;;;;;;;15.44;89.88;101871.88;4912948;29;20025;-93
2023/06/27 00:14:56;;;;;;;17.55;2.78;;;;;;;15.41;90.62;101885.91;4894887;29;20120;-93
2023/06/27 00:17:23;;;;;;;5.82;2.70;;;;;;;15.38;90.66;101879.16;4879098;29;20553;-93
2023/06/27 00:19:49;;;;;;;4.97;2.75;;;;;;;15.34;91.17;101875.38;4897212;29;20033;-93
2023/06/27 00:22:14;;;;;;;7.72;2.60;;;;;;;15.31;92.48;101873.19;4900993;29;20024;-93
2023/06/27 00:24:41;;;;;;;6.70;2.60;;;;;;;15.26;92.50;101865.88;4883537;29;20033;-93
2023/06/27 00:27:07;;;;;;;7.85;2.83;;;;;;;15.20;93.52;101866.13;4899057;29;20040;-93
2023/06/27 00:29:33;;;;;;;11.53;2.83;;;;;;;15.18;93.04;101874.47;4890565;29;20025;-91
2023/06/27 00:31:58;;;;;;;12.47;2.73;;;;;;;15.19;93.44;101884.19;4916432;29;20272;-91
2023/06/27 00:34:24;;;;;;;13.50;2.88;;;;;;;15.13;93.25;101877.97;4915559;29;20020;-93
2023/06/27 00:36:49;;;;;;;10.13;2.90;;;;;;;15.10;93.90;101867.69;4914836;29;20111;-91
2023/06/27 00:39:14;;;;;;;6.47;2.60;;;;;;;15.20;92.88;101876.94;4896973;29;20032;-91
2023/06/27 00:41:40;;;;;;;6.03;2.40;;;;;;;15.18;93.58;101869.09;4895789;29;20497;-92
2023/06/27 00:44:10;;;;;;;6.20;2.47;;;;;;;15.24;93.29;101870.72;4876357;29;20688;-92
2023/06/27 00:46:40;;;;;;;8.50;2.47;;;;;;;15.21;92.97;101868.56;4899870;29;20488;-92
2023/06/27 00:49:07;;;;;;;8.73;2.53;;;;;;;15.22;93.43;101878.28;4915085;29;20520;-92
2023/06/27 00:51:33;;;;;;;9.45;2.55;;;;;;;15.15;93.92;101875.03;4915262;29;20021;-93
2023/06/27 00:53:58;;;;;;;8.93;3.03;;;;;;;15.10;93.95;101870.41;4915001;29;20028;-91
2023/06/27 00:56:24;;;;;;;8.27;2.67;;;;;;;15.11;94.91;101871.22;4898214;29;20037;-92
2023/06/27 00:58:50;;;;;;;8.77;2.72;;;;;;;15.10;95.28;101878.50;4906392;29;20036;-91
2023/06/27 01:01:16;;;;;;;7.93;2.90;;;;;;;15.10;95.93;101877.69;4914936;29;20031;-91
2023/06/27 01:03:42;;;;;;;9.10;3.00;;;;;;;15.10;94.78;101875.00;4905215;29;20024;-91
2023/06/27 01:06:35;;;;;;;8.43;2.77;;;;;;;15.08;94.63;101886.03;4901720;29;20851;-92
2023/06/27 01:09:05;;;;;;;9.02;2.72;;;;;;;14.98;95.27;101886.81;4895042;29;20047;-93
2023/06/27 01:11:41;;;;;;;7.07;2.90;;;;;;;14.99;95.52;101890.31;4914733;29;20036;-93
2023/06/27 01:14:09;;;;;;;6.57;2.53;;;;;;;14.98;95.41;101884.09;4917703;29;20301;-92
2023/06/27 01:16:35;;;;;;;6.00;2.70;;;;;;;14.96;96.29;101888.97;4899577;29;20028;-91
2023/06/27 01:19:01;;;;;;;7.63;2.65;;;;;;;15.01;95.60;101887.34;4899191;29;20029;-91
2023/06/27 01:21:28;;;;;;;8.45;2.63;;;;;;;15.02;95.74;101886.28;4899749;29;20035;-93
2023/06/27 01:24:06;;;;;;;10.77;2.60;;;;;;;15.07;96.57;101886.31;4912493;29;20043;-91
2023/06/27 01:26:31;;;;;;;8.93;3.20;;;;;;;15.04;96.13;101876.03;4897999;29;20409;-92
2023/06/27 01:28:56;;;;;;;9.00;3.00;;;;;;;15.05;96.33;101883.06;4913389;29;20035;-92
2023/06/27 01:31:54;;;;;;;8.88;2.72;;;;;;;15.02;95.60;101886.28;4916296;29;20034;-93
2023/06/27 01:34:31;;;;;;;10.03;2.70;;;;;;;14.94;96.60;101874.94;4918274;29;20036;-91
2023/06/27 01:37:00;;;;;;;7.40;2.67;;;;;;;14.90;96.48;101883.78;4890125;29;20297;-91
2023/06/27 01:39:31;;;;;;;8.00;2.92;;;;;;;14.85;96.90;101881.88;4914383;29;20569;-91
2023/06/27 01:42:01;;;;;;;7.13;2.60;;;;;;;14.77;97.10;101879.69;4910908;29;20028;-91
2023/06/27 01:44:27;;;;;;;10.57;2.97;;;;;;;14.73;97.37;101878.56;4931553;29;20086;-92
2023/06/27 01:46:53;;;;;;;14.10;3.22;;;;;;;14.68;98.01;101877.47;4921341;29;20045;-91
2023/06/27 01:49:18;;;;;;;15.17;2.70;;;;;;;14.68;98.71;101880.16;4916756;29;20032;-91
2023/06/27 01:51:45;;;;;;;11.15;3.15;;;;;;;14.68;98.59;101874.75;4917666;29;20020;-91
2023/06/27 01:54:10;;;;;;;13.85;3.03;;;;;;;14.69;98.79;101873.69;4897506;29;20028;-92
2023/06/27 01:56:36;;;;;;;8.30;2.50;;;;;;;14.83;98.21;101873.22;4901642;29;20034;-91
2023/06/27 01:59:02;;;;;;;11.60;2.60;;;;;;;14.87;98.05;101876.22;4904143;29;20068;-91
2023/06/27 02:01:28;;;;;;;8.20;2.40;;;;;;;14.86;97.90;101871.91;4901789;29;20032;-91
2023/06/27 02:03:54;;;;;;;9.43;2.83;;;;;;;14.89;97.48;101872.19;4899003;29;20458;-92
2023/06/27 02:06:20;;;;;;;7.15;3.00;;;;;;;14.85;98.20;101871.09;4890357;29;20079;-92
2023/06/27 02:08:45;;;;;;;6.50;2.60;;;;;;;14.86;98.52;101864.63;4893672;29;20124;-91
2023/06/27 02:11:10;;;;;;;8.40;2.40;;;;;;;14.82;97.87;101867.03;4913285;29;20640;-91
2023/06/27 02:13:37;;;;;;;10.45;2.85;;;;;;;14.87;98.90;101860.84;4909249;29;20047;-91
2023/06/27 02:16:03;;;;;;;9.63;2.80;;;;;;;14.85;99.38;101865.69;4904235;29;20032;-92
2023/06/27 02:18:29;;;;;;;8.47;2.83;;;;;;;14.89;98.23;101860.56;4902765;29;20296;-92
2023/06/27 02:20:55;;;;;;;11.07;3.05;;;;;;;14.84;98.88;101862.19;4915830;29;20128;-92
2023/06/27 02:23:21;;;;;;;10.93;3.00;;;;;;;14.86;98.92;101863.81;4897015;29;20065;-90
2023/06/27 02:25:46;;;;;;;7.63;2.37;;;;;;;14.84;98.62;101855.97;4915656;29;20039;-91
2023/06/27 02:28:11;;;;;;;15.07;2.87;;;;;;;14.83;99.18;101857.03;4899994;29;20037;-92
2023/06/27 02:30:37;;;;;;;10.33;3.13;;;;;;;14.85;98.67;101863.00;4900924;29;20036;-91
2023/06/27 02:33:02;;;;;;;8.70;2.35;;;;;;;14.87;99.10;101862.75;4917858;29;20032;-91
2023/06/27 02:35:28;;;;;;;7.93;2.40;;;;;;;14.88;99.50;101856.28;4897143;29;20120;-92
2023/06/27 02:37:53;;;;;;;8.00;2.50;;;;;;;14.91;98.43;101845.75;4917238;29;20040;-91
2023/06/27 02:40:18;;;;;;;9.43;2.77;;;;;;;14.92;100.00;101847.38;4915655;29;20436;-91
2023/06/27 02:42:44;;;;;;;13.03;2.90;;;;;;;14.89;99.93;101850.59;4910636;29;20060;-92
2023/06/27 02:45:10;;;;;;;8.23;2.90;;;;;;;14.82;99.56;101845.44;4907543;29;20535;-91
2023/06/27 02:47:35;;;;;;;8.85;2.80;;;;;;;14.75;99.49;101844.06;4915044;29;20404;-91
2023/06/27 02:50:01;;;;;;;6.33;2.87;;;;;;;14.76;99.76;101851.06;4917021;29;20063;-93
2023/06/27 02:52:26;;;;;;;7.07;2.60;;;;;;;14.66;100.00;101852.59;4916602;29;20067;-92
2023/06/27 02:54:52;;;;;;;10.13;2.83;;;;;;;14.67;100.00;101858.81;4916405;29;20056;-91
2023/06/27 02:57:17;;;;;;;17.90;3.30;;;;;;;14.71;100.00;101854.53;4912600;29;20296;-91
2023/06/27 02:59:43;;;;;;;8.52;2.63;;;;;;;14.68;100.00;101847.78;4902566;29;20039;-90
2023/06/27 03:02:08;;;;;;;9.43;2.70;;;;;;;14.69;100.00;101856.72;4897126;29;20036;-92
2023/06/27 03:04:36;;;;;;;11.77;3.30;;;;;;;14.63;100.00;101853.09;4911882;29;20445;-92
2023/06/27 03:07:01;;;;;;;11.05;2.75;;;;;;;14.57;100.00;101864.13;4916349;29;20110;-91
2023/06/27 03:09:26;;;;;;;8.63;2.70;;;;;;;14.46;100.00;101857.84;4886225;29;20025;-92
2023/06/27 03:11:52;;;;;;;10.60;3.10;;;;;;;14.43;100.00;101859.19;4899797;29;20489;-88
2023/06/27 03:14:17;;;;;;;14.27;3.07;;;;;;;14.38;100.00;101862.66;4903127;29;20377;-88
2023/06/27 03:16:43;;;;;;;7.10;2.83;;;;;;;14.42;100.00;101856.75;4911256;29;20495;-89
2023/06/27 03:19:08;;;;;;;10.50;3.00;;;;;;;14.44;100.00;101860.00;4920064;29;20039;-89
2023/06/27 03:21:33;;;;;;;8.37;2.83;;;;;;;14.45;100.00;101862.44;4911427;29;20055;-88
2023/06/27 03:23:59;;;;;;;9.17;2.70;;;;;;;14.45;100.00;101858.91;4895864;29;20029;-88
2023/06/27 03:26:27;;;;;;;12.02;2.80;;;;;;;14.46;100.00;101857.84;4907141;29;20030;-90
2023/06/27 03:28:56;;;;;;;9.90;3.00;;;;;;;14.49;100.00;101865.44;4898600;29;20115;-88
2023/06/27 03:31:21;;;;;;;10.10;2.80;;;;;;;14.46;100.00;101857.84;4898209;29;20296;-88
2023/06/27 03:33:47;;;;;;;9.65;2.90;;;;;;;14.44;100.00;101854.59;4896091;29;20140;-88
2023/06/27 03:36:12;;;;;;;9.77;2.90;;;;;;;14.44;100.00;101870.78;4896019;29;20417;-88
2023/06/27 03:38:38;;;;;;;11.48;3.40;;;;;;;14.46;100.00;101858.69;4908147;29;20039;-87
2023/06/27 03:41:03;;;;;;;12.53;3.10;;;;;;;14.47;100.00;101863.00;4916194;29;20436;-91
2023/06/27 03:43:28;;;;;;;10.93;3.80;;;;;;;14.41;100.00;101855.13;4907535;29;20028;-90
2023/06/27 03:45:54;;;;;;;10.37;2.70;;;;;;;14.39;100.00;101867.00;4894962;29;20035;-92
2023/06/27 03:48:21;;;;;;;10.57;3.10;;;;;;;14.34;100.00;101864.25;4899048;29;20647;-94
2023/06/27 03:50:46;;;;;;;8.65;2.80;;;;;;;14.39;100.00;101864.28;4917481;29;20471;-94
2023/06/27 03:53:11;;;;;;;12.50;3.07;;;;;;;14.46;100.00;101860.53;4897608;29;20032;-93
2023/06/27 03:55:40;;;;;;;10.70;2.90;;;;;;;14.45;100.00;101872.41;4915462;29;20268;-95
2023/06/27 03:58:06;;;;;;;10.32;2.83;;;;;;;14.45;100.00;101862.44;4918074;29;20039;-92
2023/06/27 04:00:31;;;;;;;12.37;2.80;;;;;;;14.46;100.00;101869.47;4917252;29;20024;-92
2023/06/27 04:02:57;;;;;;;8.80;2.50;;;;;;;14.45;100.00;101875.09;4907347;29;20029;-91
2023/06/27 04:05:22;;;;;;;14.95;3.15;;;;;;;14.37;100.00;101869.13;4877220;29;20029;-92
2023/06/27 04:07:48;;;;;;;11.37;2.87;;;;;;;14.41;100.00;101874.81;4898105;29;20028;-93
2023/06/27 04:10:14;;;;;;;9.20;2.78;;;;;;;14.36;100.00;101864.81;4916457;29;20079;-92
2023/06/27 04:12:40;;;;;;;12.63;2.70;;;;;;;14.39;100.00;101871.56;4899516;29;20036;-94
2023/06/27 04:15:08;;;;;;;10.33;2.87;;;;;;;14.39;100.00;101876.94;4898021;29;20287;-91
2023/06/27 04:17:34;;;;;;;8.20;3.40;;;;;;;14.39;100.00;101868.84;4915949;29;20391;-90
2023/06/27 04:20:00;;;;;;;11.55;3.35;;;;;;;14.43;100.00;101877.22;4907651;29;20125;-94
2023/06/27 04:22:25;;;;;;;7.67;2.90;;;;;;;14.42;100.00;101868.34;4911386;29;20497;-91
2023/06/27 04:24:50;;;;;;;11.48;3.50;;;;;;;14.36;100.00;101863.97;4908610;29;20036;-94
2023/06/27 04:27:16;;;;;;;8.77;2.93;;;;;;;14.37;100.00;101868.31;4915799;29;20421;-91
2023/06/27 04:29:41;;;;;;;9.60;3.30;;;;;;;14.32;100.00;101876.38;4905688;29;20059;-95
2023/06/27 04:32:08;;;;;;;16.03;3.37;;;;;;;14.31;100.00;101875.53;4922665;29;20044;-96
2023/06/27 04:34:36;;;;;;;9.23;3.20;;;;;;;14.28;100.00;101875.25;4920533;29;20088;-95
2023/06/27 04:37:05;;;;;;;8.40;3.35;;;;;;;14.26;100.00;101878.19;4922997;29;20034;-91
2023/06/27 04:39:30;;;;;;;15.50;3.53;;;;;;;14.20;100.00;101873.84;4916854;29;20095;-92
2023/06/27 04:41:58;;;;;;;12.83;3.27;;;;;;;14.22;100.00;101882.50;4927066;29;20416;-93
2023/06/27 04:44:24;;;;;;;10.45;3.22;;;;;;;14.19;100.00;101878.41;4921599;29;20039;-91
2023/06/27 04:46:49;;;;;;;14.23;3.30;;;;;;;14.17;100.00;101877.03;4921005;29;20048;-92
2023/06/27 04:49:15;;;;;;;13.33;3.63;;;;;;;14.19;100.00;101883.00;4915599;29;20705;-91
2023/06/27 04:51:40;;;;;;;12.30;3.20;;;;;;;14.19;100.00;101880.31;4933325;29;20032;-92
2023/06/27 04:54:06;;;;;;;13.00;3.53;;;;;;;14.29;100.00;101884.97;4941647;29;20043;-91
2023/06/27 04:56:33;;;;;;;14.87;3.50;;;;;;;14.36;100.00;101880.16;4929837;29;20277;-91
2023/06/27 04:58:58;;;;;;;12.88;3.38;;;;;;;14.55;100.00;101880.59;4918139;29;20473;-92
2023/06/27 05:01:23;;;;;;;7.97;3.10;;;;;;;14.77;100.00;101885.06;4919154;29;20013;-95
2023/06/27 05:03:49;;;;;;;10.03;3.27;;;;;;;15.32;100.00;101884.81;4924447;29;20037;-91
2023/06/27 05:06:16;;;;;;;14.02;3.70;;;;;;;16.11;100.00;101890.97;4932195;29;20059;-91
2023/06/27 05:08:41;;;;;;;16.02;3.95;;;;;;;17.05;96.11;101886.28;4923713;29;20017;-91
2023/06/27 05:11:06;;;;;;;13.17;2.87;;;;;;;17.99;90.66;101890.16;4899933;29;20489;-91
2023/06/27 05:13:32;;;;;;;7.23;3.10;;;;;;;18.73;85.29;101898.19;4907310;29;20047;-91
2023/06/27 05:15:57;;;;;;;9.23;3.50;;;;;;;19.48;80.73;101898.72;4910435;29;20563;-90
2023/06/27 05:18:24;;;;;;;7.97;3.07;;;;;;;20.31;76.48;101902.94;4929166;29;20027;-89
2023/06/27 05:20:50;;;;;;;11.98;3.10;;;;;;;21.29;70.16;101908.50;4923260;29;20034;-88
2023/06/27 05:23:16;;;;;;;9.77;3.17;;;;;;;22.08;65.80;101903.78;4912694;29;20092;-94
2023/06/27 05:25:41;;;;;;;11.13;3.58;;;;;;;22.69;62.31;101897.84;4932338;29;20053;-93
2023/06/27 05:28:08;;;;;;;8.53;2.93;;;;;;;23.25;60.90;101898.25;4938472;29;20068;-96
2023/06/27 05:30:33;;;;;;;9.40;2.90;;;;;;;23.70;58.11;101899.88;4916140;29;20025;-94
2023/06/27 05:32:59;;;;;;;12.37;2.93;;;;;;;24.18;55.86;101895.38;4909280;29;20168;-89
2023/06/27 05:35:24;;;;;;;11.73;3.78;;;;;;;24.42;54.73;101904.16;4900242;29;20488;-87
2023/06/27 05:37:50;;;;;;;14.40;3.20;;;;;;;24.41;53.44;101902.56;4898678;29;20096;-90
2023/06/27 05:40:15;;;;;;;10.18;3.13;;;;;;;24.28;53.61;101902.44;4901910;29;20036;-90
2023/06/27 05:42:41;;;;;;;14.90;3.30;;;;;;;24.16;53.71;101905.00;4908971;29;20111;-91
2023/06/27 05:45:07;;;;;;;19.90;3.60;;;;;;;24.02;54.02;101902.44;4902951;29;20452;-91
2023/06/27 05:47:32;;;;;;;13.60;3.63;;;;;;;24.04;54.73;101905.66;4905689;29;20055;-89
2023/06/27 05:49:58;;;;;;;10.10;3.67;;;;;;;23.94;54.79;101893.09;4891888;29;20064;-89
2023/06/27 05:52:24;;;;;;;17.25;3.80;;;;;;;24.05;54.17;101890.84;4893878;29;20028;-90
2023/06/27 05:54:50;;;;;;;9.23;3.50;;;;;;;24.15;54.12;101895.19;4901030;29;20408;-89
2023/06/27 05:57:16;;;;;;;12.27;3.40;;;;;;;24.18;54.11;101891.81;4895844;29;20037;-91
2023/06/27 05:59:41;;;;;;;11.50;3.10;;;;;;;24.12;54.52;101901.31;4898895;29;20035;-91
2023/06/27 06:02:06;;;;;;;10.63;3.13;;;;;;;23.93;54.61;101905.16;4905162;29;20058;-90
2023/06/27 06:04:32;;;;;;;11.87;3.57;;;;;;;23.40;55.62;101899.69;4916580;29;20064;-90
2023/06/27 06:07:03;;;;;;;10.27;3.33;;;;;;;22.85;59.16;101900.97;4915702;29;20032;-89
2023/06/27 06:09:30;;;;;;;11.57;3.83;;;;;;;22.60;60.12;101897.03;4901783;29;20115;-89
2023/06/27 06:11:57;;;;;;;10.57;3.15;;;;;;;22.39;62.18;101892.06;4896588;29;20053;-89
2023/06/27 06:14:23;;;;;;;15.02;3.42;;;;;;;22.24;63.21;101893.25;4896258;29;20032;-89
2023/06/27 06:16:49;;;;;;;15.70;3.78;;;;;;;21.97;64.85;101883.28;4895079;29;20035;-88
2023/06/27 06:19:14;;;;;;;16.10;3.90;;;;;;;21.90;65.50;101886.44;4893243;29;20044;-89
2023/06/27 06:21:40;;;;;;;11.60;3.60;;;;;;;21.74;67.05;101888.72;4900872;29;20025;-90
2023/06/27 06:24:07;;;;;;;14.23;3.90;;;;;;;21.61;68.08;101896.66;4916223;29;20028;-89
2023/06/27 06:26:35;;;;;;;12.33;3.57;;;;;;;21.42;68.86;101904.97;4911136;29;20364;-90
2023/06/27 06:29:00;;;;;;;13.45;3.75;;;;;;;;;;4915304;29;20024;-91
2023/06/27 06:31:25;;;;;;;13.45;4.15;;;;;;;21.03;70.43;101893.47;4912704;29;20063;-89
2023/06/27 06:33:51;;;;;;;15.83;4.30;;;;;;;21.04;72.34;101907.91;4919157;29;20130;-90
2023/06/27 06:36:18;;;;;;;16.43;4.63;;;;;;;20.86;72.58;101906.88;4898137;29;20029;-90
2023/06/27 06:38:44;;;;;;;11.48;4.50;;;;;;;20.78;73.98;101910.34;4901183;29;20025;-91
2023/06/27 06:41:11;;;;;;;17.83;4.10;;;;;;;20.77;73.95;101912.22;4889953;29;20044;-87
2023/06/27 06:43:36;;;;;;;16.80;4.00;;;;;;;20.95;74.76;101920.63;4902742;29;20797;-89
2023/06/27 06:46:02;;;;;;;12.57;4.25;;;;;;;20.90;74.03;101913.34;4918694;29;20032;-89
2023/06/27 06:48:27;;;;;;;13.37;4.30;;;;;;;21.05;75.13;101920.44;4901753;29;20021;-91
2023/06/27 06:50:53;;;;;;;12.67;3.87;;;;;;;20.99;74.71;101921.63;4897526;29;20142;-91
2023/06/27 06:53:19;;;;;;;15.65;4.30;;;;;;;20.95;74.13;101915.16;4900332;29;20488;-91
2023/06/27 06:55:45;;;;;;;10.70;4.55;;;;;;;20.97;74.15;101915.69;4898492;29;20024;-89
2023/06/27 06:58:10;;;;;;;12.20;4.10;;;;;;;21.05;74.10;101917.72;4915611;29;20040;-89
2023/06/27 07:00:36;;;;;;;12.32;4.43;;;;;;;21.08;73.20;101922.56;4906108;29;20060;-90
2023/06/27 07:03:03;;;;;;;12.13;4.37;;;;;;;21.26;73.59;101920.81;4910623;29;20548;-89
2023/06/27 07:05:29;;;;;;;14.73;4.07;;;;;;;21.35;73.37;101928.28;4896239;29;20033;-91
2023/06/27 07:07:55;;;;;;;20.10;4.15;;;;;;;21.46;74.37;101924.22;4905557;29;20036;-90
2023/06/27 07:10:22;;;;;;;14.10;4.10;;;;;;;21.43;72.12;101924.84;4907881;29;20032;-90
2023/06/27 07:12:47;;;;;;;12.20;4.30;;;;;;;21.46;70.62;101913.31;4901030;29;20440;-90
2023/06/27 07:15:14;;;;;;;10.93;4.40;;;;;;;21.44;70.43;101921.81;4912927;29;20127;-90
2023/06/27 07:17:39;;;;;;;12.05;4.30;;;;;;;21.49;72.08;101924.41;4899146;29;20067;-90
2023/06/27 07:20:05;;;;;;;11.10;4.33;;;;;;;21.54;69.39;101931.69;4899340;29;20103;-90
2023/06/27 07:22:30;;;;;;;17.70;4.25;;;;;;;21.80;70.48;101933.06;4913198;29;20717;-91
2023/06/27 07:24:56;;;;;;;9.30;4.03;;;;;;;22.19;67.28;101923.41;4915335;29;20039;-90
2023/06/27 07:27:21;;;;;;;11.70;4.32;;;;;;;22.54;65.20;101929.94;4907461;29;20401;-90
2023/06/27 07:29:46;;;;;;;8.53;3.10;;;;;;;23.14;63.78;101919.56;4894274;29;20025;-91
2023/06/27 07:32:12;;;;;;;14.40;4.30;;;;;;;23.21;63.94;101915.56;4903475;29;20039;-91
2023/06/27 07:34:39;;;;;;;12.17;3.83;;;;;;;23.50;62.48;101927.88;4912904;29;20043;-90
2023/06/27 07:37:05;;;;;;;10.75;3.50;;;;;;;23.52;54.77;101922.88;4890952;29;20426;-90
2023/06/27 07:39:31;;;;;;;10.50;3.20;;;;;;;23.59;55.30;101912.25;4892064;29;20473;-90
2023/06/27 07:41:56;;;;;;;7.33;3.00;;;;;;;23.92;56.79;101919.97;4912139;29;20043;-90
2023/06/27 07:44:21;;;;;;;5.87;2.77;;;;;;;24.35;52.15;101910.94;4899517;29;20033;-91
2023/06/27 07:46:47;;;;;;;9.17;2.80;;;;;;;24.72;50.17;101918.75;4905249;29;20072;-90
2023/06/27 07:49:12;;;;;;;7.78;2.75;;;;;;;25.09;48.75;101919.06;4913431;29;20048;-90
2023/06/27 07:51:37;;;;;;;10.73;2.97;;;;;;;24.75;48.31;101914.53;4905000;29;20458;-91
2023/06/27 07:54:03;;;;;;;10.93;3.50;;;;;;;24.30;50.19;101911.09;4921512;29;20042;-91
2023/06/27 07:56:29;;;;;;;11.40;3.20;;;;;;;23.85;52.33;101915.00;4911134;29;20033;-91
2023/06/27 07:58:54;;;;;;;9.87;2.80;;;;;;;23.68;52.61;101909.53;4922129;29;20020;-91
2023/06/27 08:01:20;;;;;;;9.93;2.92;;;;;;;23.65;52.50;101905.50;4916829;29;20028;-91
2023/06/27 08:03:46;;;;;;;7.73;2.57;;;;;;;23.71;52.62;101912.44;4905280;29;20449;-92
2023/06/27 08:06:11;;;;;;;6.90;2.42;;;;;;;23.93;52.02;101918.06;4905849;29;20038;-93
2023/06/27 08:08:36;;;;;;;6.53;2.83;;;;;;;24.07;50.85;101923.41;4880689;29;20504;-94
2023/06/27 08:11:03;;;;;;;8.70;2.50;;;;;;;24.16;52.49;101915.97;4898804;29;20456;-95
2023/06/27 08:13:28;;;;;;;9.73;2.85;;;;;;;24.64;51.25;101917.63;4913262;29;21026;-96
2023/06/27 08:15:55;;;;;;;7.57;2.40;;;;;;;24.81;48.73;101918.72;4906186;29;20108;-96
2023/06/27 08:21:39;;;;;;;7.28;2.72;;;;;;;25.50;49.08;101926.88;4956739;23;20055;-95
2023/06/27 08:24:20;;;;;;;4.10;2.00;;;;;;;25.57;47.87;101909.88;4852087;29;20049;-95
2023/06/27 09:04:49;;;;;;;7.35;2.05;;;;;;;25.65;44.26;101907.09;4880152;29;20055;-94
2023/06/27 09:08:17;;;;;;;7.22;2.10;;;;;;;25.76;45.08;101898.44;4882706;29;20029;-94
2023/06/27 09:16:46;;;;;;;6.63;2.10;;;;;;;25.98;42.41;101902.75;4714067;27;20052;-96
2023/06/27 09:19:14;;;;;;;5.70;2.10;;;;;;;25.98;42.48;101886.28;4916784;23;20092;-93
2023/06/27 09:22:11;;;;;;;6.28;2.00;;;;;;;26.06;42.40;101898.31;4887689;29;20041;-95
2023/06/27 09:28:18;;;;;;;5.87;1.47;;;;;;;25.77;42.44;101898.09;5018830;23;20535;-96
2023/06/27 09:31:03;;;;;;;4.73;2.00;;;;;;;25.84;42.21;101900.28;4909405;29;20364;-94
2023/06/27 09:33:32;;;;;;;9.68;4.60;;;;;;;26.10;41.68;101882.78;4919518;29;20050;-95
2023/06/27 09:36:39;;;;;;;7.15;3.55;;;;;;;26.60;42.49;101902.94;4902822;29;20048;-94
2023/06/27 09:39:15;;;;;;;7.70;1.80;;;;;;;26.37;41.02;101864.09;4900077;29;20043;-92
2023/06/27 09:41:46;;;;;;;7.70;1.95;;;;;;;26.35;40.64;101891.09;4913033;29;20066;-90
2023/06/27 09:44:14;;;;;;;7.20;1.58;;;;;;;26.30;40.52;101911.34;4914158;29;20071;-90
2023/06/27 09:46:41;;;;;;;6.30;1.73;;;;;;;26.15;37.98;101899.84;4898110;29;20346;-90
2023/06/27 09:49:08;;;;;;;7.65;1.70;;;;;;;26.34;37.87;101909.53;4899335;29;20106;-90
2023/06/27 09:51:33;;;;;;;4.15;1.40;;;;;;;26.36;37.87;101918.22;4917288;29;20101;-91
2023/06/27 09:53:59;;;;;;;5.77;1.60;;;;;;;26.58;39.30;101921.69;4920582;29;20032;-92
2023/06/27 09:56:32;;;;;;;5.63;1.90;;;;;;;26.74;38.23;101917.13;4920723;29;20024;-94
2023/06/27 09:59:11;;;;;;;3.88;1.55;;;;;;;27.17;38.78;101909.47;4914880;29;20020;-93
2023/06/27 10:01:37;;;;;;;6.65;1.70;;;;;;;27.48;37.03;101907.25;4919726;29;20116;-92
2023/06/27 10:04:04;;;;;;;3.47;1.48;;;;;;;27.46;35.91;101906.78;4928198;29;20286;-96
2023/06/27 10:06:30;;;;;;;7.05;1.55;;;;;;;27.10;35.38;101911.19;4938522;29;20083;-94
2023/06/27 10:08:56;;;;;;;4.03;1.83;;;;;;;26.93;35.90;101909.50;4933482;29;20055;-92
2023/06/27 10:11:23;;;;;;;8.50;1.53;;;;;;;26.57;35.21;101898.09;4911487;29;20066;-93
2023/06/27 10:13:50;;;;;;;11.17;1.87;;;;;;;26.53;37.31;101899.94;4931654;29;20319;-93
2023/06/27 10:16:17;;;;;;;4.25;1.50;;;;;;;26.52;35.67;101898.31;4928230;29;20047;-93
2023/06/27 10:18:42;;;;;;;2.83;1.60;;;;;;;26.70;35.57;101898.94;4902866;29;20080;-92
2023/06/27 10:21:12;;;;;;;2.25;1.35;;;;;;;26.74;35.61;101903.38;4908418;29;20080;-91
2023/06/27 10:23:44;;;;;;;2.83;1.20;;;;;;;26.52;34.77;101912.06;4923356;29;20476;-91
2023/06/27 10:26:09;;;;;;;8.10;1.63;;;;;;;26.17;36.35;101909.72;4917220;29;20295;-91
2023/06/27 10:28:35;;;;;;;3.67;1.27;;;;;;;26.17;35.42;101907.78;4906678;29;20023;-92
2023/06/27 10:31:04;;;;;;;2.77;1.43;;;;;;;26.41;37.20;101906.22;4918637;29;20024;-92
2023/06/27 10:33:31;;;;;;;3.45;1.48;;;;;;;26.76;35.36;101914.84;4919868;29;20036;-91
2023/06/27 10:36:02;;;;;;;2.13;1.35;;;;;;;26.84;33.23;101913.16;4921107;29;20100;-91
2023/06/27 10:47:48;;;;;;;5.10;1.33;;;;;;;27.40;34.02;101891.63;5029122;23;20100;-93
2023/06/27 10:50:24;;;;;;;3.53;1.20;;;;;;;27.20;33.81;101888.72;4901220;29;20063;-93
2023/06/27 10:53:08;;;;;;;5.47;1.40;;;;;;;27.08;33.27;101884.03;4918299;29;20027;-91
2023/06/27 10:55:38;;;;;;;3.43;1.50;;;;;;;27.18;32.63;101900.06;4917023;29;20304;-93
2023/06/27 10:58:26;;;;;;;5.70;1.33;;;;;;;27.59;33.25;101891.06;5131258;23;20045;-92
2023/06/27 11:00:59;;;;;;;3.90;1.10;;;;;;;27.91;31.15;101866.34;4909259;29;20037;-94
2023/06/27 11:06:31;;;;;;;5.43;1.50;;;;;;;28.59;31.61;101875.56;5274066;23;20060;-92
2023/06/27 11:08:57;;;;;;;4.85;1.30;;;;;;;28.90;30.13;101889.69;4890980;29;20053;-93
2023/06/27 11:11:28;;;;;;;5.13;1.40;;;;;;;28.87;29.05;101891.22;4894219;29;20080;-93
2023/06/27 11:14:05;;;;;;;4.17;1.53;;;;;;;28.91;29.61;101897.63;4893463;29;20083;-94
2023/06/27 11:16:30;;;;;;;6.93;1.27;;;;;;;28.92;28.55;101895.66;4914091;29;20820;-93
2023/06/27 11:18:56;;;;;;;4.03;1.55;;;;;;;28.79;28.84;101895.78;4913182;29;20030;-92
2023/06/27 11:21:22;;;;;;;6.50;1.70;;;;;;;28.69;29.78;101896.28;4898530;29;20044;-93
2023/06/27 11:23:48;;;;;;;5.33;1.30;;;;;;;28.80;30.17;101883.59;4898808;29;20104;-92
2023/06/27 11:26:14;;;;;;;5.53;1.63;;;;;;;29.16;29.88;101892.66;4897696;29;20047;-94
2023/06/27 11:28:39;;;;;;;3.60;1.60;;;;;;;29.75;29.36;101892.72;4898473;29;20115;-92
2023/06/27 11:31:04;;;;;;;3.83;1.80;;;;;;;30.17;28.27;101888.38;4899608;29;20029;-94
2023/06/27 11:33:30;;;;;;;6.03;1.30;;;;;;;30.02;28.56;101903.88;4871704;29;20099;-93
2023/06/27 11:38:45;;;;;;;4.03;1.30;;;;;;;29.40;28.98;101890.81;5913480;23;20289;-93
2023/06/27 11:41:10;;;;;;;3.40;1.77;;;;;;;29.56;28.12;101898.25;4902604;29;20304;-93
2023/06/27 11:43:36;;;;;;;2.60;1.42;;;;;;;29.29;29.03;101875.97;4893041;29;20051;-93
2023/06/27 11:46:01;;;;;;;2.70;1.50;;;;;;;29.24;28.71;101874.31;4895931;29;20037;-94
2023/06/27 11:48:28;;;;;;;2.97;1.50;;;;;;;29.31;28.69;101857.88;4855837;29;20525;-93
2023/06/27 11:51:07;;;;;;;2.20;1.40;;;;;;;29.48;29.09;101896.50;4879843;29;20325;-95
2023/06/27 11:54:08;;;;;;;2.83;1.00;;;;;;;29.29;28.13;101867.69;4880298;29;20497;-92
2023/06/27 11:56:38;;;;;;;6.90;1.80;;;;;;;28.49;28.34;101882.41;4821125;29;20045;-93
2023/06/27 11:59:06;;;;;;;5.03;1.63;;;;;;;28.22;29.30;101884.91;4821604;29;20038;-93
2023/06/27 12:01:38;;;;;;;3.40;1.40;;;;;;;28.55;30.75;101903.06;4851025;29;20137;-90
2023/06/27 12:04:12;;;;;;;2.38;1.20;;;;;;;28.35;29.64;101895.84;4873935;29;20044;-93
2023/06/27 12:06:37;;;;;;;5.43;1.67;;;;;;;28.20;30.22;101881.72;4878505;29;20033;-91
2023/06/27 12:09:07;;;;;;;2.17;1.60;;;;;;;28.16;30.63;101891.81;4860998;29;20052;-93
2023/06/27 12:18:24;;;;;;;3.95;1.65;;;;;;;28.22;30.03;101873.91;5561610;23;20079;-95
2023/06/27 12:21:22;;;;;;;4.30;1.47;;;;;;;28.31;31.07;101886.69;4933199;29;20051;-93
2023/06/27 12:24:00;;;;;;;8.37;1.60;;;;;;;28.62;31.16;101883.13;4912312;29;20799;-91
2023/06/27 12:26:25;;;;;;;6.15;1.40;;;;;;;29.18;30.02;101872.97;4903154;23;20030;-94
2023/06/27 12:28:59;;;;;;;6.70;1.70;;;;;;;29.27;29.97;101881.06;4861794;29;20056;-93
2023/06/27 12:31:25;;;;;;;3.55;1.70;;;;;;;29.23;29.91;101877.41;4862093;29;20029;-92
2023/06/27 12:33:52;;;;;;;5.20;1.40;;;;;;;29.14;30.41;101883.94;4879268;29;20033;-94
2023/06/27 12:39:16;;;;;;;4.43;1.38;;;;;;;28.63;31.64;101839.84;5085405;23;20044;-93